createdAt,value
2022-12-25T00:01:48.675Z,101553.59
2022-12-25T00:04:15.299Z,101555.63
2022-12-25T00:06:41.932Z,101560.88
2022-12-25T00:09:08.482Z,101558.91
2022-12-25T00:11:35.205Z,101548.03
2022-12-25T00:14:01.776Z,101550.88
2022-12-25T00:16:28.409Z,101550.66
2022-12-25T00:18:57.015Z,101542.81
2022-12-25T00:21:23.515Z,101548.47
2022-12-25T00:23:58.248Z,101543.03
2022-12-25T00:26:26.015Z,101540.41
2022-12-25T00:28:54.187Z,101546.25
2022-12-25T00:31:22.233Z,101552.72
2022-12-25T00:33:50.416Z,101540.03
2022-12-25T00:36:19.089Z,101539.22
2022-12-25T00:38:47.500Z,101547.72
2022-12-25T00:41:18.215Z,101537.84
2022-12-25T00:43:44.810Z,101532.78
2022-12-25T00:46:12.800Z,101536.81
2022-12-25T00:48:39.569Z,101544.88
2022-12-25T00:51:09.386Z,101550.34
2022-12-25T00:53:36.407Z,101552.56
2022-12-25T00:56:05.704Z,101548.72
2022-12-25T00:58:33.640Z,101550.94
2022-12-25T01:01:00.702Z,101550.56
2022-12-25T01:03:27.405Z,101554.59
2022-12-25T01:05:57.128Z,101550.56
2022-12-25T01:08:24.081Z,101551.16
2022-12-25T01:10:58.945Z,101546.28
2022-12-25T01:13:26.022Z,101555.38
2022-12-25T01:15:52.759Z,101556.78
2022-12-25T01:18:23.385Z,101563.84
2022-12-25T01:20:50.027Z,101567.91
2022-12-25T01:23:17.177Z,101567.69
2022-12-25T01:25:43.786Z,101561.44
2022-12-25T01:28:10.378Z,101572.34
2022-12-25T01:30:36.868Z,101561.84
2022-12-25T01:33:03.648Z,101564.06
2022-12-25T01:35:30.167Z,101569.09
2022-12-25T01:37:56.938Z,101557.41
2022-12-25T01:40:23.531Z,101565.06
2022-12-25T01:42:50.095Z,101558.00
2022-12-25T01:45:32.249Z,101551.75
2022-12-25T01:47:59.854Z,101545.28
2022-12-25T01:50:27.739Z,101548.72
2022-12-25T01:52:55.478Z,101547.91
2022-12-25T01:55:22.498Z,101553.75
2022-12-25T01:57:49.604Z,101566.28
2022-12-25T02:00:16.316Z,101571.13
2022-12-25T02:02:44.699Z,101563.06
2022-12-25T02:05:29.331Z,101565.88
2022-12-25T02:07:57.006Z,101569.50
2022-12-25T02:10:23.762Z,101565.69
2022-12-25T02:12:51.143Z,101555.78
2022-12-25T02:15:20.773Z,101553.16
2022-12-25T02:18:25.504Z,101562.06
2022-12-25T02:21:19.648Z,101562.88
2022-12-25T02:24:00.131Z,101567.91
2022-12-25T02:26:41.809Z,101560.44
2022-12-25T02:29:38.018Z,101550.72
2022-12-25T02:32:16.410Z,101558.00
2022-12-25T02:35:10.788Z,101553.75
2022-12-25T02:37:49.676Z,101557.38
2022-12-25T02:40:20.619Z,101561.63
2022-12-25T02:43:15.938Z,101564.03
2022-12-25T02:46:06.667Z,101556.56
2022-12-25T02:48:55.958Z,101554.78
2022-12-25T02:51:46.102Z,101544.50
2022-12-25T02:54:36.058Z,101542.88
2022-12-25T02:57:26.633Z,101544.69
2022-12-25T03:00:15.214Z,101535.00
2022-12-25T03:03:02.940Z,101538.84
2022-12-25T03:05:51.553Z,101530.19
2022-12-25T03:08:24.666Z,101512.03
2022-12-25T03:11:18.264Z,101506.16
2022-12-25T03:13:49.044Z,101504.13
2022-12-25T03:16:34.337Z,101503.72
2022-12-25T03:19:21.181Z,101498.88
2022-12-25T03:22:06.334Z,101496.03
2022-12-25T03:24:51.962Z,101486.34
2022-12-25T03:27:18.685Z,101479.06
2022-12-25T03:30:03.708Z,101490.72
2022-12-25T03:32:51.834Z,101503.22
2022-12-25T03:35:29.049Z,101498.38
2022-12-25T03:38:23.258Z,101498.97
2022-12-25T03:41:37.712Z,101494.94
2022-12-25T03:44:22.498Z,101499.97
2022-12-25T03:47:28.489Z,101497.94
2022-12-25T03:50:36.751Z,101507.25
2022-12-25T03:53:25.879Z,101497.53
2022-12-25T03:56:11.841Z,101496.75
2022-12-25T03:58:56.623Z,101505.63
2022-12-25T04:01:41.756Z,101502.00
2022-12-25T04:04:26.852Z,101494.13
2022-12-25T04:07:12.021Z,101491.91
2022-12-25T04:09:56.883Z,101481.81
2022-12-25T04:12:41.848Z,101483.50
2022-12-25T04:15:27.874Z,101484.72
2022-12-25T04:18:12.940Z,101482.31
2022-12-25T04:20:58.130Z,101491.19
2022-12-25T04:23:43.183Z,101479.69
2022-12-25T04:26:28.132Z,101496.03
2022-12-25T04:29:13.109Z,101492.00
2022-12-25T04:31:58.209Z,101503.50
2022-12-25T04:34:43.284Z,101504.91
2022-12-25T04:37:10.017Z,101496.44
2022-12-25T04:39:36.451Z,101493.41
2022-12-25T04:42:03.040Z,101490.84
2022-12-25T04:44:29.583Z,101485.38
2022-12-25T04:46:56.310Z,101490.44
2022-12-25T04:49:22.832Z,101497.09
2022-12-25T04:51:49.270Z,101487.59
2022-12-25T04:54:16.146Z,101484.56
2022-12-25T04:56:45.755Z,101491.84
2022-12-25T04:59:12.830Z,101488.41
2022-12-25T05:01:40.082Z,101484.78
2022-12-25T05:04:07.034Z,101477.13
2022-12-25T05:06:33.661Z,101468.63
2022-12-25T05:09:00.126Z,101467.03
2022-12-25T05:11:27.608Z,101475.91
2022-12-25T05:13:54.084Z,101477.09
2022-12-25T05:16:21.026Z,101476.31
2022-12-25T05:18:51.973Z,101471.25
2022-12-25T05:21:19.194Z,101461.81
2022-12-25T05:23:48.991Z,101448.69
2022-12-25T05:26:17.310Z,101448.47
2022-12-25T05:28:43.811Z,101446.44
2022-12-25T05:31:10.650Z,101447.25
2022-12-25T05:33:37.475Z,101443.63
2022-12-25T05:36:05.765Z,101441.41
2022-12-25T05:38:33.044Z,101441.41
2022-12-25T05:40:59.633Z,101432.72
2022-12-25T05:43:27.366Z,101432.31
2022-12-25T05:45:54.008Z,101430.09
2022-12-25T05:48:20.573Z,101434.34
2022-12-25T05:50:47.453Z,101438.59
2022-12-25T05:53:15.862Z,101433.94
2022-12-25T05:55:46.453Z,101437.16
2022-12-25T05:58:13.765Z,101435.97
2022-12-25T06:00:43.513Z,101444.44
2022-12-25T06:03:10.006Z,101450.06
2022-12-25T06:05:38.991Z,101441.19
2022-12-25T06:08:06.247Z,101424.25
2022-12-25T06:10:32.764Z,101437.75
2022-12-25T06:12:59.348Z,101422.63
2022-12-25T06:15:25.807Z,101421.41
2022-12-25T06:17:52.367Z,101416.97
2022-12-25T06:20:18.940Z,101412.72
2022-12-25T06:22:45.587Z,101408.06
2022-12-25T06:25:12.256Z,101409.88
2022-12-25T06:27:38.849Z,101415.94
2022-12-25T06:30:06.203Z,101417.34
2022-12-25T06:32:32.768Z,101422.19
2022-12-25T06:34:59.264Z,101413.91
2022-12-25T06:37:25.806Z,101412.47
2022-12-25T06:39:52.323Z,101410.44
2022-12-25T06:42:18.916Z,101412.47
2022-12-25T06:44:45.444Z,101397.31
2022-12-25T06:47:11.959Z,101394.28
2022-12-25T06:49:38.406Z,101403.56
2022-12-25T06:52:05.040Z,101399.50
2022-12-25T06:54:31.561Z,101400.31
2022-12-25T06:56:58.087Z,101388.56
2022-12-25T06:59:24.976Z,101398.84
2022-12-25T07:01:57.367Z,101388.16
2022-12-25T07:04:26.893Z,101379.25
2022-12-25T07:06:53.462Z,101380.44
2022-12-25T07:09:20.037Z,101383.28
2022-12-25T07:11:46.705Z,101379.44
2022-12-25T07:14:24.525Z,101381.06
2022-12-25T07:16:51.559Z,101380.84
2022-12-25T07:19:19.324Z,101381.66
2022-12-25T07:21:46.333Z,101384.88
2022-12-25T07:24:17.704Z,101398.59
2022-12-25T07:26:44.217Z,101406.25
2022-12-25T07:29:10.754Z,101397.38
2022-12-25T07:31:37.919Z,101392.94
2022-12-25T07:34:04.719Z,101409.50
2022-12-25T07:36:31.263Z,101410.09
2022-12-25T07:38:57.911Z,101395.34
2022-12-25T07:41:24.540Z,101391.69
2022-12-25T07:43:52.962Z,101388.06
2022-12-25T07:46:21.185Z,101395.72
2022-12-25T07:48:47.846Z,101404.41
2022-12-25T07:51:16.165Z,101412.28
2022-12-25T07:53:43.169Z,101422.81
2022-12-25T07:56:15.943Z,101416.53
2022-12-25T07:58:43.008Z,101416.53
2022-12-25T08:01:22.396Z,101408.66
2022-12-25T08:03:54.334Z,101403.41
2022-12-25T08:06:22.244Z,101421.56
2022-12-25T08:08:48.947Z,101418.75
2022-12-25T08:11:15.606Z,101415.09
2022-12-25T08:13:42.165Z,101420.34
2022-12-25T08:16:10.554Z,101428.84
2022-12-25T08:18:38.288Z,101433.28
2022-12-25T08:21:10.866Z,101433.63
2022-12-25T08:23:39.605Z,101447.81
2022-12-25T08:26:08.705Z,101453.63
2022-12-25T08:28:35.726Z,101443.94
2022-12-25T08:31:15.934Z,101437.44
2022-12-25T08:33:42.529Z,101441.91
2022-12-25T08:36:10.705Z,101436.66
2022-12-25T08:38:37.993Z,101424.31
2022-12-25T08:41:05.193Z,101442.28
2022-12-25T08:43:31.737Z,101428.34
2022-12-25T08:45:58.275Z,101412.38
2022-12-25T08:48:25.189Z,101408.75
2022-12-25T08:50:52.951Z,101403.06
2022-12-25T08:53:19.809Z,101393.16
2022-12-25T08:55:46.438Z,101391.13
2022-12-25T08:58:14.402Z,101400.63
2022-12-25T09:00:41.548Z,101410.09
2022-12-25T09:03:08.387Z,101401.81
2022-12-25T09:05:36.563Z,101404.44
2022-12-25T09:08:03.315Z,101410.28
2022-12-25T09:10:30.139Z,101401.97
2022-12-25T09:12:57.011Z,101400.97
2022-12-25T09:15:23.672Z,101403.16
2022-12-25T09:17:50.113Z,101397.91
2022-12-25T09:20:16.619Z,101417.72
2022-12-25T09:22:43.125Z,101414.06
2022-12-25T09:25:09.951Z,101411.78
2022-12-25T09:27:37.362Z,101411.56
2022-12-25T09:30:05.042Z,101417.44
2022-12-25T09:32:31.815Z,101434.81
2022-12-25T09:34:58.337Z,101427.72
2022-12-25T09:37:24.888Z,101439.03
2022-12-25T09:39:51.664Z,101441.47
2022-12-25T09:42:22.057Z,101440.66
2022-12-25T09:45:28.586Z,101422.03
2022-12-25T09:47:57.036Z,101411.53
2022-12-25T09:50:58.795Z,101410.31
2022-12-25T09:53:29.408Z,101409.06
2022-12-25T09:56:12.601Z,101408.66
2022-12-25T09:58:39.310Z,101399.75
2022-12-25T10:01:31.981Z,101398.72
2022-12-25T10:04:06.201Z,101390.84
2022-12-25T10:06:32.650Z,101382.16
2022-12-25T10:09:18.133Z,101380.53
2022-12-25T10:12:03.408Z,101402.16
2022-12-25T10:14:47.842Z,101396.91
2022-12-25T10:17:32.747Z,101375.28
2022-12-25T10:20:02.272Z,101378.50
2022-12-25T10:22:40.804Z,101375.06
2022-12-25T10:25:17.865Z,101377.47
2022-12-25T10:27:44.685Z,101377.47
2022-12-25T10:30:17.228Z,101378.88
2022-12-25T10:32:45.262Z,101375.22
2022-12-25T10:35:17.042Z,101364.50
2022-12-25T10:37:46.514Z,101374.81
2022-12-25T10:40:31.184Z,101364.88
2022-12-25T10:43:07.309Z,101357.59
2022-12-25T10:45:43.727Z,101364.41
2022-12-25T10:48:18.649Z,101342.41
2022-12-25T10:50:45.166Z,101364.03
2022-12-25T10:53:19.720Z,101353.13
2022-12-25T10:56:04.339Z,101331.28
2022-12-25T10:58:32.736Z,101327.59
2022-12-25T11:01:05.748Z,101323.19
2022-12-25T11:03:39.058Z,101318.72
2022-12-25T11:06:07.477Z,101318.50
2022-12-25T11:08:35.120Z,101310.19
2022-12-25T11:11:08.867Z,101304.50
2022-12-25T11:13:40.308Z,101309.13
2022-12-25T11:16:27.116Z,101293.56
2022-12-25T11:18:54.478Z,101289.31
2022-12-25T11:21:25.551Z,101289.31
2022-12-25T11:24:01.189Z,101288.50
2022-12-25T11:26:30.601Z,101272.72
2022-12-25T11:28:58.282Z,101271.50
2022-12-25T11:31:40.945Z,101280.56
2022-12-25T11:34:24.651Z,101262.50
2022-12-25T11:36:52.509Z,101247.69
2022-12-25T11:39:25.115Z,101249.88
2022-12-25T11:41:58.000Z,101238.44
2022-12-25T11:44:33.832Z,101216.50
2022-12-25T11:47:12.723Z,101225.94
2022-12-25T11:49:49.712Z,101222.19
2022-12-25T11:52:18.987Z,101220.06
2022-12-25T11:54:56.886Z,101220.63
2022-12-25T11:57:27.499Z,101226.94
2022-12-25T12:00:00.287Z,101233.22
2022-12-25T12:02:36.720Z,101230.81
2022-12-25T12:05:18.954Z,101239.38
2022-12-25T12:08:01.723Z,101232.94
2022-12-25T12:10:44.511Z,101226.28
2022-12-25T12:13:33.568Z,101226.28
2022-12-25T12:16:00.350Z,101232.94
2022-12-25T12:18:26.826Z,101228.47
2022-12-25T12:21:20.763Z,101227.22
2022-12-25T12:24:07.641Z,101212.03
2022-12-25T12:26:38.155Z,101214.88
2022-12-25T12:29:08.034Z,101207.22
2022-12-25T12:31:43.360Z,101197.47
2022-12-25T12:34:28.121Z,101204.13
2022-12-25T12:37:05.526Z,101197.72
2022-12-25T12:39:36.812Z,101190.25
2022-12-25T12:42:13.910Z,101182.59
2022-12-25T12:44:40.622Z,101178.94
2022-12-25T12:47:27.620Z,101179.38
2022-12-25T12:50:01.435Z,101193.56
2022-12-25T12:52:38.749Z,101191.72
2022-12-25T12:55:08.749Z,101193.19
2022-12-25T12:57:39.971Z,101192.41
2022-12-25T13:00:18.204Z,101194.81
2022-12-25T13:03:15.598Z,101190.34
2022-12-25T13:05:48.122Z,101187.94
2022-12-25T13:08:42.091Z,101175.00
2022-12-25T13:11:19.612Z,101162.50
2022-12-25T13:13:48.585Z,101161.72
2022-12-25T13:16:19.681Z,101150.38
2022-12-25T13:18:46.654Z,101154.84
2022-12-25T13:21:20.645Z,101140.88
2022-12-25T13:23:47.332Z,101138.25
2022-12-25T13:26:17.954Z,101146.16
2022-12-25T13:28:46.721Z,101143.06
2022-12-25T13:31:17.972Z,101141.47
2022-12-25T13:33:57.984Z,101143.28
2022-12-25T13:36:29.535Z,101128.75
2022-12-25T13:38:58.673Z,101136.66
2022-12-25T13:41:49.033Z,101135.03
2022-12-25T13:44:22.627Z,101123.97
2022-12-25T13:46:49.505Z,101120.31
2022-12-25T13:49:18.780Z,101127.41
2022-12-25T13:51:46.515Z,101134.28
2022-12-25T13:54:15.671Z,101136.91
2022-12-25T13:56:56.056Z,101131.66
2022-12-25T13:59:25.373Z,101120.53
2022-12-25T14:01:54.150Z,101126.81
2022-12-25T14:04:23.053Z,101123.63
2022-12-25T14:06:51.704Z,101118.59
2022-12-25T14:09:19.302Z,101120.19
2022-12-25T14:11:52.227Z,101114.47
2022-12-25T14:14:23.282Z,101109.22
2022-12-25T14:16:53.469Z,101118.94
2022-12-25T14:19:34.064Z,101123.16
2022-12-25T14:22:17.487Z,101123.16
2022-12-25T14:24:44.160Z,101128.66
2022-12-25T14:27:23.232Z,101130.25
2022-12-25T14:29:53.108Z,101123.41
2022-12-25T14:32:25.136Z,101110.25
2022-12-25T14:34:56.936Z,101119.16
2022-12-25T14:37:28.210Z,101121.00
2022-12-25T14:40:18.691Z,101115.72
2022-12-25T14:42:58.296Z,101097.53
2022-12-25T14:45:26.554Z,101099.59
2022-12-25T14:47:55.366Z,101097.97
2022-12-25T14:50:41.286Z,101099.59
2022-12-25T14:53:19.790Z,101091.91
2022-12-25T14:55:52.526Z,101096.38
2022-12-25T14:58:26.491Z,101104.03
2022-12-25T15:00:56.624Z,101101.19
2022-12-25T15:03:27.735Z,101098.56
2022-12-25T15:06:05.720Z,101110.69
2022-12-25T15:08:34.700Z,101101.19
2022-12-25T15:11:02.999Z,101108.06
2022-12-25T15:13:31.451Z,101100.38
2022-12-25T15:16:04.379Z,101100.38
2022-12-25T15:18:36.750Z,101102.22
2022-12-25T15:21:03.368Z,101113.75
2022-12-25T15:23:30.036Z,101120.63
2022-12-25T15:25:56.527Z,101103.25
2022-12-25T15:28:22.978Z,101102.44
2022-12-25T15:30:50.018Z,101109.53
2022-12-25T15:33:18.507Z,101104.50
2022-12-25T15:35:45.803Z,101108.72
2022-12-25T15:38:13.502Z,101114.00
2022-12-25T15:40:40.731Z,101106.09
2022-12-25T15:43:14.557Z,101100.03
2022-12-25T15:45:55.348Z,101094.78
2022-12-25T15:48:21.892Z,101089.50
2022-12-25T15:50:49.411Z,101090.75
2022-12-25T15:53:15.901Z,101085.50
2022-12-25T15:55:42.408Z,101080.47
2022-12-25T15:58:13.120Z,101084.69
2022-12-25T16:00:39.639Z,101079.44
2022-12-25T16:03:06.287Z,101068.34
2022-12-25T16:05:32.846Z,101064.09
2022-12-25T16:07:59.461Z,101065.94
2022-12-25T16:10:26.091Z,101075.66
2022-12-25T16:12:52.608Z,101087.19
2022-12-25T16:15:19.130Z,101082.16
2022-12-25T16:17:45.712Z,101088.22
2022-12-25T16:20:12.607Z,101088.22
2022-12-25T16:22:41.734Z,101084.00
2022-12-25T16:25:19.153Z,101085.59
2022-12-25T16:27:46.410Z,101085.81
2022-12-25T16:30:15.492Z,101086.63
2022-12-25T16:32:42.938Z,101081.34
2022-12-25T16:35:10.932Z,101073.69
2022-12-25T16:37:39.060Z,101068.66
2022-12-25T16:40:07.229Z,101070.47
2022-12-25T16:42:34.176Z,101068.06
2022-12-25T16:45:00.661Z,101054.13
2022-12-25T16:47:27.256Z,101044.63
2022-12-25T16:49:53.740Z,101039.16
2022-12-25T16:52:20.265Z,101062.81
2022-12-25T16:54:46.953Z,101054.13
2022-12-25T16:57:14.619Z,101061.00
2022-12-25T16:59:41.720Z,101064.66
2022-12-25T17:02:15.055Z,101062.25
2022-12-25T17:04:41.686Z,101059.38
2022-12-25T17:07:08.188Z,101056.75
2022-12-25T17:09:40.417Z,101055.16
2022-12-25T17:12:10.354Z,101048.06
2022-12-25T17:14:36.871Z,101057.78
2022-12-25T17:17:03.722Z,101044.06
2022-12-25T17:19:30.336Z,101052.53
2022-12-25T17:21:57.319Z,101053.53
2022-12-25T17:24:23.879Z,101061.22
2022-12-25T17:26:50.377Z,101059.59
2022-12-25T17:29:21.651Z,101062.25
2022-12-25T17:31:48.859Z,101056.97
2022-12-25T17:34:15.475Z,101056.97
2022-12-25T17:36:42.067Z,101052.53
2022-12-25T17:39:11.096Z,101053.31
2022-12-25T17:41:37.924Z,101050.69
2022-12-25T17:44:04.724Z,101049.09
2022-12-25T17:46:31.426Z,101058.81
2022-12-25T17:48:59.788Z,101053.75
2022-12-25T17:51:28.306Z,101057.41
2022-12-25T17:53:59.926Z,101059.25
2022-12-25T17:56:26.836Z,101060.28
2022-12-25T17:58:56.027Z,101058.44
2022-12-25T18:01:25.021Z,101064.69
2022-12-25T18:03:52.264Z,101050.78
2022-12-25T18:06:21.588Z,101053.41
2022-12-25T18:08:48.265Z,101047.34
2022-12-25T18:11:18.150Z,101039.69
2022-12-25T18:13:48.286Z,101038.09
2022-12-25T18:16:15.967Z,101040.13
2022-12-25T18:18:47.955Z,101037.50
2022-12-25T18:21:18.452Z,101035.09
2022-12-25T18:23:46.257Z,101030.63
2022-12-25T18:26:12.991Z,101030.06
2022-12-25T18:28:40.030Z,101034.50
2022-12-25T18:31:10.670Z,101035.53
2022-12-25T18:33:37.240Z,101045.84
2022-12-25T18:36:04.141Z,101045.03
2022-12-25T18:38:30.855Z,101040.78
2022-12-25T18:40:57.987Z,101038.38
2022-12-25T18:43:52.654Z,101038.63
2022-12-25T18:46:11.711Z,101054.97
2022-12-25T18:48:39.475Z,101050.94
2022-12-25T18:51:08.395Z,101058.63
2022-12-25T18:53:35.953Z,101054.38
2022-12-25T18:56:09.422Z,101051.75
2022-12-25T18:58:37.868Z,101046.72
2022-12-25T19:01:19.612Z,101045.13
2022-12-25T19:03:46.679Z,101044.31
2022-12-25T19:06:25.010Z,101029.56
2022-12-25T19:08:51.703Z,101030.59
2022-12-25T19:11:19.337Z,101035.03
2022-12-25T19:13:45.984Z,101041.31
2022-12-25T19:16:13.158Z,101036.88
2022-12-25T19:18:40.440Z,101038.47
2022-12-25T19:21:08.803Z,101032.41
2022-12-25T19:23:37.716Z,101029.22
2022-12-25T19:26:05.915Z,101034.47
2022-12-25T19:28:32.551Z,101031.63
2022-12-25T19:31:00.428Z,101022.94
2022-12-25T19:33:27.124Z,101034.25
2022-12-25T19:35:53.658Z,101029.78
2022-12-25T19:38:20.372Z,101034.03
2022-12-25T19:41:00.563Z,101041.09
2022-12-25T19:43:36.230Z,101041.91
2022-12-25T19:46:03.568Z,101054.25
2022-12-25T19:48:31.833Z,101052.63
2022-12-25T19:50:58.866Z,101043.94
2022-12-25T19:53:25.746Z,101060.53
2022-12-25T19:55:53.704Z,101059.50
2022-12-25T19:58:22.417Z,101047.97
2022-12-25T20:01:05.528Z,101050.38
2022-12-25T20:03:33.596Z,101049.56
2022-12-25T20:06:01.078Z,101054.81
2022-12-25T20:08:28.023Z,101053.00
2022-12-25T20:10:54.883Z,101051.19
2022-12-25T20:13:21.484Z,101057.22
2022-12-25T20:15:48.518Z,101056.22
2022-12-25T20:18:15.053Z,101053.59
2022-12-25T20:20:42.536Z,101059.63
2022-12-25T20:23:09.960Z,101058.63
2022-12-25T20:25:42.762Z,101060.22
2022-12-25T20:28:09.619Z,101053.94
2022-12-25T20:30:39.860Z,101058.16
2022-12-25T20:33:06.451Z,101058.16
2022-12-25T20:35:33.111Z,101053.94
2022-12-25T20:37:59.565Z,101051.31
2022-12-25T20:40:26.063Z,101056.34
2022-12-25T20:42:52.572Z,101058.97
2022-12-25T20:45:19.050Z,101047.44
2022-12-25T20:47:45.743Z,101050.06
2022-12-25T20:50:12.255Z,101064.00
2022-12-25T20:52:38.770Z,101065.63
2022-12-25T20:55:05.814Z,101061.16
2022-12-25T20:57:32.348Z,101060.34
2022-12-25T20:59:58.876Z,101058.75
2022-12-25T21:02:35.009Z,101059.56
2022-12-25T21:05:03.126Z,101063.78
2022-12-25T21:07:29.591Z,101070.44
2022-12-25T21:09:56.093Z,101072.25
2022-12-25T21:12:22.624Z,101077.28
2022-12-25T21:14:49.190Z,101070.22
2022-12-25T21:17:15.710Z,101069.41
2022-12-25T21:19:42.309Z,101080.47
2022-12-25T21:22:08.864Z,101082.91
2022-12-25T21:24:35.573Z,101082.91
2022-12-25T21:27:02.139Z,101079.47
2022-12-25T21:29:28.641Z,101070.56
2022-12-25T21:32:13.667Z,101076.84
2022-12-25T21:34:40.442Z,101095.84
2022-12-25T21:37:06.921Z,101098.47
2022-12-25T21:39:33.568Z,101112.19
2022-12-25T21:42:00.090Z,101107.50
2022-12-25T21:44:26.685Z,101111.75
2022-12-25T21:46:53.312Z,101107.28
2022-12-25T21:49:39.868Z,101111.53
2022-12-25T21:52:09.277Z,101111.31
2022-12-25T21:54:36.420Z,101113.94
2022-12-25T21:57:03.444Z,101105.25
2022-12-25T21:59:29.942Z,101101.38
2022-12-25T22:01:56.600Z,101099.75
2022-12-25T22:04:23.630Z,101113.50
2022-12-25T22:07:08.830Z,101114.28
2022-12-25T22:09:35.361Z,101114.28
2022-12-25T22:12:21.236Z,101106.19
2022-12-25T22:14:54.047Z,101106.19
2022-12-25T22:17:42.328Z,101114.88
2022-12-25T22:20:15.840Z,101120.94
2022-12-25T22:22:42.650Z,101117.28
2022-12-25T22:25:09.684Z,101124.16
2022-12-25T22:27:38.603Z,101121.28
2022-12-25T22:30:07.410Z,101125.75
2022-12-25T22:32:34.633Z,101133.66
2022-12-25T22:35:01.218Z,101120.50
2022-12-25T22:37:27.746Z,101102.09
2022-12-25T22:39:54.266Z,101100.84
2022-12-25T22:42:20.961Z,101100.03
2022-12-25T22:44:47.453Z,101085.84
2022-12-25T22:47:14.157Z,101086.66
2022-12-25T22:49:40.802Z,101092.72
2022-12-25T22:52:09.793Z,101102.22
2022-12-25T22:54:37.183Z,101084.84
2022-12-25T22:57:04.762Z,101075.91
2022-12-25T22:59:32.925Z,101094.09
2022-12-25T23:02:00.119Z,101098.34
2022-12-25T23:04:27.391Z,101096.75
2022-12-25T23:06:53.949Z,101115.94
2022-12-25T23:09:24.768Z,101099.16
2022-12-25T23:11:51.499Z,101104.63
2022-12-25T23:14:36.522Z,101106.81
2022-12-25T23:17:03.259Z,101096.28
2022-12-25T23:19:48.337Z,101085.78
2022-12-25T23:22:34.019Z,101091.84
2022-12-25T23:25:19.173Z,101078.69
2022-12-25T23:27:46.003Z,101069.19
2022-12-25T23:30:15.978Z,101081.31
2022-12-25T23:32:44.198Z,101082.91
2022-12-25T23:35:11.633Z,101080.28
2022-12-25T23:37:38.164Z,101090.81
2022-12-25T23:40:05.348Z,101104.75
2022-12-25T23:42:31.963Z,101108.19
2022-12-25T23:44:58.490Z,101111.63
2022-12-25T23:47:24.998Z,101106.38
2022-12-25T23:49:51.530Z,101113.22
2022-12-25T23:52:19.696Z,101096.66
2022-12-25T23:54:47.062Z,101102.94
2022-12-25T23:57:13.545Z,101109.78
2022-12-25T23:59:40.006Z,101112.44
